sensor_id;sensor_type;location;lat;lon;timestamp;temperature;humidity
44047;DHT22;29713;-33.888;151.150;2023-02-28T00:01:14;25.70;99.90
44047;DHT22;29713;-33.888;151.150;2023-02-28T00:03:42;25.60;99.90
44047;DHT22;29713;-33.888;151.150;2023-02-28T00:06:10;25.50;99.90
44047;DHT22;29713;-33.888;151.150;2023-02-28T00:08:37;25.40;99.90
44047;DHT22;29713;-33.888;151.150;2023-02-28T00:11:08;25.40;99.90
44047;DHT22;29713;-33.888;151.150;2023-02-28T00:13:38;25.30;99.90
44047;DHT22;29713;-33.888;151.150;2023-02-28T00:16:10;25.20;99.90
44047;DHT22;29713;-33.888;151.150;2023-02-28T00:18:40;25.10;99.90
44047;DHT22;29713;-33.888;151.150;2023-02-28T00:21:08;25.10;99.90
44047;DHT22;29713;-33.888;151.150;2023-02-28T00:23:38;25.10;99.90
44047;DHT22;29713;-33.888;151.150;2023-02-28T00:26:08;25.00;99.90
44047;DHT22;29713;-33.888;151.150;2023-02-28T00:28:36;25.00;99.90
44047;DHT22;29713;-33.888;151.150;2023-02-28T00:31:03;24.90;99.90
44047;DHT22;29713;-33.888;151.150;2023-02-28T00:33:31;24.90;99.90
44047;DHT22;29713;-33.888;151.150;2023-02-28T00:36:04;24.90;99.90
44047;DHT22;29713;-33.888;151.150;2023-02-28T00:38:32;24.90;99.90
44047;DHT22;29713;-33.888;151.150;2023-02-28T00:40:59;24.90;99.90
44047;DHT22;29713;-33.888;151.150;2023-02-28T00:43:32;24.80;99.90
44047;DHT22;29713;-33.888;151.150;2023-02-28T00:45:59;24.80;99.90
44047;DHT22;29713;-33.888;151.150;2023-02-28T00:48:27;24.80;99.90
44047;DHT22;29713;-33.888;151.150;2023-02-28T00:50:54;24.70;99.90
44047;DHT22;29713;-33.888;151.150;2023-02-28T00:53:22;24.70;99.90
44047;DHT22;29713;-33.888;151.150;2023-02-28T00:55:50;24.70;99.90
44047;DHT22;29713;-33.888;151.150;2023-02-28T00:58:17;24.60;99.90
44047;DHT22;29713;-33.888;151.150;2023-02-28T01:00:45;24.70;99.90
44047;DHT22;29713;-33.888;151.150;2023-02-28T01:03:17;24.70;99.90
44047;DHT22;29713;-33.888;151.150;2023-02-28T01:05:45;24.80;99.90
44047;DHT22;29713;-33.888;151.150;2023-02-28T01:08:13;24.90;99.90
44047;DHT22;29713;-33.888;151.150;2023-02-28T01:10:41;25.10;99.90
44047;DHT22;29713;-33.888;151.150;2023-02-28T01:13:11;25.20;99.90
44047;DHT22;29713;-33.888;151.150;2023-02-28T01:15:45;25.30;99.90
44047;DHT22;29713;-33.888;151.150;2023-02-28T01:18:13;25.50;99.90
44047;DHT22;29713;-33.888;151.150;2023-02-28T01:20:40;25.60;99.90
44047;DHT22;29713;-33.888;151.150;2023-02-28T01:23:07;25.70;99.90
44047;DHT22;29713;-33.888;151.150;2023-02-28T01:25:36;25.80;99.90
44047;DHT22;29713;-33.888;151.150;2023-02-28T01:28:03;25.90;99.90
44047;DHT22;29713;-33.888;151.150;2023-02-28T01:30:32;26.20;99.90
44047;DHT22;29713;-33.888;151.150;2023-02-28T01:33:04;26.60;99.90
44047;DHT22;29713;-33.888;151.150;2023-02-28T01:35:35;26.90;99.90
44047;DHT22;29713;-33.888;151.150;2023-02-28T01:38:04;27.20;99.90
44047;DHT22;29713;-33.888;151.150;2023-02-28T01:40:32;27.40;99.90
44047;DHT22;29713;-33.888;151.150;2023-02-28T01:42:59;27.60;99.90
44047;DHT22;29713;-33.888;151.150;2023-02-28T01:45:29;27.70;99.90
44047;DHT22;29713;-33.888;151.150;2023-02-28T01:48:06;27.80;99.90
44047;DHT22;29713;-33.888;151.150;2023-02-28T01:50:38;27.90;99.90
44047;DHT22;29713;-33.888;151.150;2023-02-28T01:53:10;28.10;99.90
44047;DHT22;29713;-33.888;151.150;2023-02-28T01:55:38;28.30;99.90
44047;DHT22;29713;-33.888;151.150;2023-02-28T01:58:08;28.20;99.90
44047;DHT22;29713;-33.888;151.150;2023-02-28T02:00:36;28.20;99.90
44047;DHT22;29713;-33.888;151.150;2023-02-28T02:03:11;28.00;99.90
44047;DHT22;29713;-33.888;151.150;2023-02-28T02:05:42;28.00;99.90
44047;DHT22;29713;-33.888;151.150;2023-02-28T02:08:21;28.00;99.90
44047;DHT22;29713;-33.888;151.150;2023-02-28T02:10:55;27.90;99.90
44047;DHT22;29713;-33.888;151.150;2023-02-28T02:13:42;28.00;99.90
44047;DHT22;29713;-33.888;151.150;2023-02-28T02:25:32;27.40;99.90
44047;DHT22;29713;-33.888;151.150;2023-02-28T02:31:20;27.30;99.90
44047;DHT22;29713;-33.888;151.150;2023-02-28T02:37:24;27.20;99.90
44047;DHT22;29713;-33.888;151.150;2023-02-28T02:42:21;27.00;99.90
44047;DHT22;29713;-33.888;151.150;2023-02-28T02:45:07;27.00;99.90
44047;DHT22;29713;-33.888;151.150;2023-02-28T02:47:36;27.00;99.90
44047;DHT22;29713;-33.888;151.150;2023-02-28T02:50:08;26.90;99.90
44047;DHT22;29713;-33.888;151.150;2023-02-28T02:52:41;26.80;99.90
44047;DHT22;29713;-33.888;151.150;2023-02-28T02:55:13;26.80;99.90
44047;DHT22;29713;-33.888;151.150;2023-02-28T02:58:03;26.80;99.90
44047;DHT22;29713;-33.888;151.150;2023-02-28T03:00:45;26.90;99.90
44047;DHT22;29713;-33.888;151.150;2023-02-28T03:03:15;27.00;99.90
44047;DHT22;29713;-33.888;151.150;2023-02-28T03:05:45;27.50;99.90
44047;DHT22;29713;-33.888;151.150;2023-02-28T03:08:13;28.20;99.90
44047;DHT22;29713;-33.888;151.150;2023-02-28T03:10:45;29.30;99.90
44047;DHT22;29713;-33.888;151.150;2023-02-28T03:16:40;31.20;99.90
44047;DHT22;29713;-33.888;151.150;2023-02-28T03:21:53;32.40;99.90
44047;DHT22;29713;-33.888;151.150;2023-02-28T03:24:27;32.90;99.90
44047;DHT22;29713;-33.888;151.150;2023-02-28T03:27:09;33.10;99.90
44047;DHT22;29713;-33.888;151.150;2023-02-28T03:29:43;33.00;99.90
44047;DHT22;29713;-33.888;151.150;2023-02-28T03:35:12;32.40;99.90
44047;DHT22;29713;-33.888;151.150;2023-02-28T03:37:43;32.50;99.90
44047;DHT22;29713;-33.888;151.150;2023-02-28T03:40:17;32.70;99.90
44047;DHT22;29713;-33.888;151.150;2023-02-28T03:42:49;32.60;99.90
44047;DHT22;29713;-33.888;151.150;2023-02-28T03:45:24;32.90;99.90
44047;DHT22;29713;-33.888;151.150;2023-02-28T03:48:41;33.00;99.90
44047;DHT22;29713;-33.888;151.150;2023-02-28T03:50:51;33.20;99.90
44047;DHT22;29713;-33.888;151.150;2023-02-28T03:53:37;33.50;99.90
44047;DHT22;29713;-33.888;151.150;2023-02-28T03:56:22;33.70;99.90
44047;DHT22;29713;-33.888;151.150;2023-02-28T04:00:06;33.80;99.90
44047;DHT22;29713;-33.888;151.150;2023-02-28T04:02:05;33.60;99.90
44047;DHT22;29713;-33.888;151.150;2023-02-28T04:04:33;33.60;99.90
44047;DHT22;29713;-33.888;151.150;2023-02-28T04:07:04;33.80;99.90
44047;DHT22;29713;-33.888;151.150;2023-02-28T04:09:32;33.80;99.90
44047;DHT22;29713;-33.888;151.150;2023-02-28T04:11:59;33.60;99.90
44047;DHT22;29713;-33.888;151.150;2023-02-28T04:14:26;33.70;99.90
44047;DHT22;29713;-33.888;151.150;2023-02-28T04:16:54;33.50;99.90
44047;DHT22;29713;-33.888;151.150;2023-02-28T04:19:21;33.00;99.90
44047;DHT22;29713;-33.888;151.150;2023-02-28T04:21:50;32.90;99.90
44047;DHT22;29713;-33.888;151.150;2023-02-28T04:24:24;33.00;99.90
44047;DHT22;29713;-33.888;151.150;2023-02-28T04:26:53;33.40;99.90
44047;DHT22;29713;-33.888;151.150;2023-02-28T04:29:24;33.60;99.90
44047;DHT22;29713;-33.888;151.150;2023-02-28T04:31:52;33.40;99.90
44047;DHT22;29713;-33.888;151.150;2023-02-28T04:34:26;33.10;99.90
44047;DHT22;29713;-33.888;151.150;2023-02-28T04:36:55;32.60;99.90
44047;DHT22;29713;-33.888;151.150;2023-02-28T04:39:23;32.30;99.90
44047;DHT22;29713;-33.888;151.150;2023-02-28T04:41:51;31.90;99.90
44047;DHT22;29713;-33.888;151.150;2023-02-28T04:44:18;32.10;99.90
44047;DHT22;29713;-33.888;151.150;2023-02-28T04:46:48;32.10;99.90
44047;DHT22;29713;-33.888;151.150;2023-02-28T04:49:22;32.00;99.90
44047;DHT22;29713;-33.888;151.150;2023-02-28T04:51:50;31.80;99.90
44047;DHT22;29713;-33.888;151.150;2023-02-28T04:54:20;31.70;99.90
44047;DHT22;29713;-33.888;151.150;2023-02-28T04:56:47;31.90;99.90
44047;DHT22;29713;-33.888;151.150;2023-02-28T04:59:16;31.80;99.90
44047;DHT22;29713;-33.888;151.150;2023-02-28T05:01:47;31.70;99.90
44047;DHT22;29713;-33.888;151.150;2023-02-28T05:04:15;31.70;99.90
44047;DHT22;29713;-33.888;151.150;2023-02-28T05:06:43;31.90;99.90
44047;DHT22;29713;-33.888;151.150;2023-02-28T05:09:11;32.10;99.90
44047;DHT22;29713;-33.888;151.150;2023-02-28T05:11:38;31.90;99.90
44047;DHT22;29713;-33.888;151.150;2023-02-28T05:14:11;31.80;99.90
44047;DHT22;29713;-33.888;151.150;2023-02-28T05:16:39;31.80;99.90
44047;DHT22;29713;-33.888;151.150;2023-02-28T05:19:06;31.30;99.90
44047;DHT22;29713;-33.888;151.150;2023-02-28T05:21:35;30.90;99.90
44047;DHT22;29713;-33.888;151.150;2023-02-28T05:24:10;30.40;99.90
44047;DHT22;29713;-33.888;151.150;2023-02-28T05:26:40;30.10;99.90
44047;DHT22;29713;-33.888;151.150;2023-02-28T05:29:08;29.90;99.90
44047;DHT22;29713;-33.888;151.150;2023-02-28T05:31:37;29.80;99.90
44047;DHT22;29713;-33.888;151.150;2023-02-28T05:34:04;29.60;99.90
44047;DHT22;29713;-33.888;151.150;2023-02-28T05:36:32;29.40;99.90
44047;DHT22;29713;-33.888;151.150;2023-02-28T05:38:59;29.30;99.90
44047;DHT22;29713;-33.888;151.150;2023-02-28T05:41:27;29.00;99.90
44047;DHT22;29713;-33.888;151.150;2023-02-28T05:43:54;28.90;99.90
44047;DHT22;29713;-33.888;151.150;2023-02-28T05:46:21;28.90;99.90
44047;DHT22;29713;-33.888;151.150;2023-02-28T05:48:49;29.20;99.90
44047;DHT22;29713;-33.888;151.150;2023-02-28T05:51:17;29.60;99.90
44047;DHT22;29713;-33.888;151.150;2023-02-28T05:53:47;30.10;99.90
44047;DHT22;29713;-33.888;151.150;2023-02-28T05:56:15;30.30;99.90
44047;DHT22;29713;-33.888;151.150;2023-02-28T05:58:43;29.90;99.90
44047;DHT22;29713;-33.888;151.150;2023-02-28T06:01:34;29.60;99.90
44047;DHT22;29713;-33.888;151.150;2023-02-28T06:04:03;29.40;99.90
44047;DHT22;29713;-33.888;151.150;2023-02-28T06:06:31;29.00;99.90
44047;DHT22;29713;-33.888;151.150;2023-02-28T06:09:01;29.00;99.90
44047;DHT22;29713;-33.888;151.150;2023-02-28T06:11:28;29.20;99.90
44047;DHT22;29713;-33.888;151.150;2023-02-28T06:13:57;29.00;99.90
44047;DHT22;29713;-33.888;151.150;2023-02-28T06:16:27;28.90;99.90
44047;DHT22;29713;-33.888;151.150;2023-02-28T06:18:56;28.70;99.90
44047;DHT22;29713;-33.888;151.150;2023-02-28T06:21:24;28.60;99.90
44047;DHT22;29713;-33.888;151.150;2023-02-28T06:23:51;28.70;99.90
44047;DHT22;29713;-33.888;151.150;2023-02-28T06:26:20;28.80;99.90
44047;DHT22;29713;-33.888;151.150;2023-02-28T06:28:47;29.10;99.90
44047;DHT22;29713;-33.888;151.150;2023-02-28T06:31:16;29.50;99.90
44047;DHT22;29713;-33.888;151.150;2023-02-28T06:33:46;29.50;99.90
44047;DHT22;29713;-33.888;151.150;2023-02-28T06:36:15;29.30;99.90
44047;DHT22;29713;-33.888;151.150;2023-02-28T06:38:42;28.90;99.90
44047;DHT22;29713;-33.888;151.150;2023-02-28T06:41:10;28.60;99.90
44047;DHT22;29713;-33.888;151.150;2023-02-28T06:43:41;28.40;99.90
44047;DHT22;29713;-33.888;151.150;2023-02-28T06:46:12;28.30;99.90
44047;DHT22;29713;-33.888;151.150;2023-02-28T06:48:42;28.10;99.90
44047;DHT22;29713;-33.888;151.150;2023-02-28T06:51:12;28.00;99.90
44047;DHT22;29713;-33.888;151.150;2023-02-28T06:53:40;28.00;99.90
44047;DHT22;29713;-33.888;151.150;2023-02-28T06:56:11;27.80;99.90
44047;DHT22;29713;-33.888;151.150;2023-02-28T06:58:38;27.70;99.90
44047;DHT22;29713;-33.888;151.150;2023-02-28T07:01:07;27.70;99.90
44047;DHT22;29713;-33.888;151.150;2023-02-28T07:03:37;27.60;99.90
44047;DHT22;29713;-33.888;151.150;2023-02-28T07:06:05;27.60;99.90
44047;DHT22;29713;-33.888;151.150;2023-02-28T07:08:34;27.70;99.90
44047;DHT22;29713;-33.888;151.150;2023-02-28T07:11:02;27.80;99.90
44047;DHT22;29713;-33.888;151.150;2023-02-28T07:13:30;27.80;99.90
44047;DHT22;29713;-33.888;151.150;2023-02-28T07:15:59;27.90;99.90
44047;DHT22;29713;-33.888;151.150;2023-02-28T07:18:27;27.80;99.90
44047;DHT22;29713;-33.888;151.150;2023-02-28T07:20:58;27.90;99.90
44047;DHT22;29713;-33.888;151.150;2023-02-28T07:23:26;27.80;99.90
44047;DHT22;29713;-33.888;151.150;2023-02-28T07:25:53;27.60;99.90
44047;DHT22;29713;-33.888;151.150;2023-02-28T07:28:21;27.40;99.90
44047;DHT22;29713;-33.888;151.150;2023-02-28T07:30:48;27.20;99.90
44047;DHT22;29713;-33.888;151.150;2023-02-28T07:33:16;27.00;99.90
44047;DHT22;29713;-33.888;151.150;2023-02-28T07:35:45;26.90;99.90
44047;DHT22;29713;-33.888;151.150;2023-02-28T07:38:12;26.80;99.90
44047;DHT22;29713;-33.888;151.150;2023-02-28T07:40:40;26.70;99.90
44047;DHT22;29713;-33.888;151.150;2023-02-28T07:43:07;26.50;99.90
44047;DHT22;29713;-33.888;151.150;2023-02-28T07:45:34;26.50;99.90
44047;DHT22;29713;-33.888;151.150;2023-02-28T07:48:02;26.50;99.90
44047;DHT22;29713;-33.888;151.150;2023-02-28T07:50:30;26.50;99.90
44047;DHT22;29713;-33.888;151.150;2023-02-28T07:52:58;26.40;99.90
44047;DHT22;29713;-33.888;151.150;2023-02-28T07:55:26;26.30;99.90
44047;DHT22;29713;-33.888;151.150;2023-02-28T07:57:53;26.20;99.90
44047;DHT22;29713;-33.888;151.150;2023-02-28T08:00:21;26.10;99.90
44047;DHT22;29713;-33.888;151.150;2023-02-28T08:02:49;26.00;99.90
44047;DHT22;29713;-33.888;151.150;2023-02-28T08:05:17;26.00;99.90
44047;DHT22;29713;-33.888;151.150;2023-02-28T08:07:44;25.90;99.90
44047;DHT22;29713;-33.888;151.150;2023-02-28T08:10:14;25.80;99.90
44047;DHT22;29713;-33.888;151.150;2023-02-28T08:12:44;25.80;99.90
44047;DHT22;29713;-33.888;151.150;2023-02-28T08:15:14;25.80;99.90
44047;DHT22;29713;-33.888;151.150;2023-02-28T08:17:42;25.70;99.90
44047;DHT22;29713;-33.888;151.150;2023-02-28T08:20:09;25.70;99.90
44047;DHT22;29713;-33.888;151.150;2023-02-28T08:22:37;25.60;99.90
44047;DHT22;29713;-33.888;151.150;2023-02-28T08:25:05;25.60;99.90
44047;DHT22;29713;-33.888;151.150;2023-02-28T08:27:34;25.50;99.90
44047;DHT22;29713;-33.888;151.150;2023-02-28T08:30:01;25.50;99.90
44047;DHT22;29713;-33.888;151.150;2023-02-28T08:32:29;25.40;99.90
44047;DHT22;29713;-33.888;151.150;2023-02-28T08:34:56;25.40;99.90
44047;DHT22;29713;-33.888;151.150;2023-02-28T08:37:24;25.30;99.90
44047;DHT22;29713;-33.888;151.150;2023-02-28T08:39:51;25.20;99.90
44047;DHT22;29713;-33.888;151.150;2023-02-28T08:42:19;25.20;99.90
44047;DHT22;29713;-33.888;151.150;2023-02-28T08:44:46;25.10;99.90
44047;DHT22;29713;-33.888;151.150;2023-02-28T08:47:14;25.00;99.90
44047;DHT22;29713;-33.888;151.150;2023-02-28T08:49:41;25.00;99.90
44047;DHT22;29713;-33.888;151.150;2023-02-28T08:52:08;24.90;99.90
44047;DHT22;29713;-33.888;151.150;2023-02-28T08:54:36;24.90;99.90
44047;DHT22;29713;-33.888;151.150;2023-02-28T08:57:04;24.90;99.90
44047;DHT22;29713;-33.888;151.150;2023-02-28T08:59:31;24.90;99.90
44047;DHT22;29713;-33.888;151.150;2023-02-28T09:01:59;24.80;99.90
44047;DHT22;29713;-33.888;151.150;2023-02-28T09:04:26;24.70;99.90
44047;DHT22;29713;-33.888;151.150;2023-02-28T09:06:57;24.70;99.90
44047;DHT22;29713;-33.888;151.150;2023-02-28T09:09:24;24.70;99.90
44047;DHT22;29713;-33.888;151.150;2023-02-28T09:11:51;24.70;99.90
44047;DHT22;29713;-33.888;151.150;2023-02-28T09:14:19;24.70;99.90
44047;DHT22;29713;-33.888;151.150;2023-02-28T09:16:46;24.70;99.90
44047;DHT22;29713;-33.888;151.150;2023-02-28T09:19:13;24.70;99.90
44047;DHT22;29713;-33.888;151.150;2023-02-28T09:21:41;24.70;99.90
44047;DHT22;29713;-33.888;151.150;2023-02-28T09:24:08;24.70;99.90
44047;DHT22;29713;-33.888;151.150;2023-02-28T09:26:38;24.70;99.90
44047;DHT22;29713;-33.888;151.150;2023-02-28T09:29:08;24.70;99.90
44047;DHT22;29713;-33.888;151.150;2023-02-28T09:31:36;24.60;99.90
44047;DHT22;29713;-33.888;151.150;2023-02-28T09:34:04;24.60;99.90
44047;DHT22;29713;-33.888;151.150;2023-02-28T09:36:34;24.60;99.90
44047;DHT22;29713;-33.888;151.150;2023-02-28T09:39:03;24.60;99.90
44047;DHT22;29713;-33.888;151.150;2023-02-28T09:41:42;24.60;99.90
44047;DHT22;29713;-33.888;151.150;2023-02-28T09:47:33;24.60;99.90
44047;DHT22;29713;-33.888;151.150;2023-02-28T09:49:53;24.60;99.90
44047;DHT22;29713;-33.888;151.150;2023-02-28T09:52:29;24.60;99.90
44047;DHT22;29713;-33.888;151.150;2023-02-28T09:55:19;24.60;99.90
44047;DHT22;29713;-33.888;151.150;2023-02-28T09:57:47;24.70;99.90
44047;DHT22;29713;-33.888;151.150;2023-02-28T10:05:41;24.60;99.90
44047;DHT22;29713;-33.888;151.150;2023-02-28T10:11:17;24.60;99.90
44047;DHT22;29713;-33.888;151.150;2023-02-28T10:16:40;24.60;99.90
44047;DHT22;29713;-33.888;151.150;2023-02-28T10:19:23;24.60;99.90
44047;DHT22;29713;-33.888;151.150;2023-02-28T10:22:08;24.60;99.90
44047;DHT22;29713;-33.888;151.150;2023-02-28T10:24:48;24.60;99.90
44047;DHT22;29713;-33.888;151.150;2023-02-28T10:29:53;24.60;99.90
44047;DHT22;29713;-33.888;151.150;2023-02-28T10:32:24;24.60;99.90
44047;DHT22;29713;-33.888;151.150;2023-02-28T10:37:41;24.60;99.90
44047;DHT22;29713;-33.888;151.150;2023-02-28T10:45:34;24.60;99.90
44047;DHT22;29713;-33.888;151.150;2023-02-28T10:56:02;24.60;99.90
44047;DHT22;29713;-33.888;151.150;2023-02-28T10:58:59;24.70;99.90
44047;DHT22;29713;-33.888;151.150;2023-02-28T11:01:42;24.60;99.90
44047;DHT22;29713;-33.888;151.150;2023-02-28T11:04:33;24.70;99.90
44047;DHT22;29713;-33.888;151.150;2023-02-28T11:09:39;24.70;99.90
44047;DHT22;29713;-33.888;151.150;2023-02-28T11:12:20;24.70;99.90
44047;DHT22;29713;-33.888;151.150;2023-02-28T11:15:00;24.60;99.90
44047;DHT22;29713;-33.888;151.150;2023-02-28T11:17:30;24.60;99.90
44047;DHT22;29713;-33.888;151.150;2023-02-28T11:20:06;24.60;99.90
44047;DHT22;29713;-33.888;151.150;2023-02-28T11:22:38;24.60;99.90
44047;DHT22;29713;-33.888;151.150;2023-02-28T11:25:28;24.60;99.90
44047;DHT22;29713;-33.888;151.150;2023-02-28T11:27:59;24.60;99.90
44047;DHT22;29713;-33.888;151.150;2023-02-28T11:30:38;24.50;99.90
44047;DHT22;29713;-33.888;151.150;2023-02-28T11:33:28;24.50;99.90
44047;DHT22;29713;-33.888;151.150;2023-02-28T11:36:04;24.50;99.90
44047;DHT22;29713;-33.888;151.150;2023-02-28T11:38:36;24.50;99.90
44047;DHT22;29713;-33.888;151.150;2023-02-28T11:41:17;24.50;99.90
44047;DHT22;29713;-33.888;151.150;2023-02-28T11:47:42;24.40;99.90
44047;DHT22;29713;-33.888;151.150;2023-02-28T11:55:16;24.40;99.90
44047;DHT22;29713;-33.888;151.150;2023-02-28T12:05:53;24.40;99.90
44047;DHT22;29713;-33.888;151.150;2023-02-28T12:27:44;24.30;99.90
44047;DHT22;29713;-33.888;151.150;2023-02-28T12:30:25;24.30;99.90
44047;DHT22;29713;-33.888;151.150;2023-02-28T12:33:09;24.30;99.90
44047;DHT22;29713;-33.888;151.150;2023-02-28T12:35:51;24.30;99.90
44047;DHT22;29713;-33.888;151.150;2023-02-28T12:40:55;24.30;99.90
44047;DHT22;29713;-33.888;151.150;2023-02-28T12:43:32;24.30;99.90
44047;DHT22;29713;-33.888;151.150;2023-02-28T12:46:14;24.30;99.90
44047;DHT22;29713;-33.888;151.150;2023-02-28T12:52:00;24.30;99.90
44047;DHT22;29713;-33.888;151.150;2023-02-28T12:54:48;24.30;99.90
44047;DHT22;29713;-33.888;151.150;2023-02-28T12:57:52;24.30;99.90
44047;DHT22;29713;-33.888;151.150;2023-02-28T13:10:49;24.30;99.90
44047;DHT22;29713;-33.888;151.150;2023-02-28T13:13:26;24.30;99.90
44047;DHT22;29713;-33.888;151.150;2023-02-28T13:18:43;24.30;99.90
44047;DHT22;29713;-33.888;151.150;2023-02-28T13:23:59;24.30;99.90
44047;DHT22;29713;-33.888;151.150;2023-02-28T13:34:35;24.30;99.90
44047;DHT22;29713;-33.888;151.150;2023-02-28T13:39:49;24.40;99.90
44047;DHT22;29713;-33.888;151.150;2023-02-28T13:47:43;24.30;99.90
44047;DHT22;29713;-33.888;151.150;2023-02-28T13:50:23;24.30;99.90
44047;DHT22;29713;-33.888;151.150;2023-02-28T14:06:23;24.30;99.90
44047;DHT22;29713;-33.888;151.150;2023-02-28T14:09:21;24.40;99.90
44047;DHT22;29713;-33.888;151.150;2023-02-28T14:11:50;24.40;99.90
44047;DHT22;29713;-33.888;151.150;2023-02-28T14:17:14;24.40;99.90
44047;DHT22;29713;-33.888;151.150;2023-02-28T14:19:45;24.40;99.90
44047;DHT22;29713;-33.888;151.150;2023-02-28T14:25:36;24.40;99.90
44047;DHT22;29713;-33.888;151.150;2023-02-28T14:28:19;24.40;99.90
44047;DHT22;29713;-33.888;151.150;2023-02-28T14:36:44;24.30;99.90
44047;DHT22;29713;-33.888;151.150;2023-02-28T14:39:19;24.30;99.90
44047;DHT22;29713;-33.888;151.150;2023-02-28T14:41:47;24.30;99.90
44047;DHT22;29713;-33.888;151.150;2023-02-28T14:44:23;24.40;99.90
44047;DHT22;29713;-33.888;151.150;2023-02-28T14:47:02;24.40;99.90
44047;DHT22;29713;-33.888;151.150;2023-02-28T14:49:37;24.30;99.90
44047;DHT22;29713;-33.888;151.150;2023-02-28T14:52:23;24.30;99.90
44047;DHT22;29713;-33.888;151.150;2023-02-28T14:54:55;24.30;99.90
44047;DHT22;29713;-33.888;151.150;2023-02-28T14:57:25;24.40;99.90
44047;DHT22;29713;-33.888;151.150;2023-02-28T15:00:16;24.40;99.90
44047;DHT22;29713;-33.888;151.150;2023-02-28T15:02:44;24.40;99.90
44047;DHT22;29713;-33.888;151.150;2023-02-28T15:07:45;24.40;99.90
44047;DHT22;29713;-33.888;151.150;2023-02-28T15:10:25;24.40;99.90
44047;DHT22;29713;-33.888;151.150;2023-02-28T15:13:01;24.40;99.90
44047;DHT22;29713;-33.888;151.150;2023-02-28T15:15:56;24.40;99.90
44047;DHT22;29713;-33.888;151.150;2023-02-28T15:21:29;24.40;99.90
44047;DHT22;29713;-33.888;151.150;2023-02-28T15:26:38;24.30;99.90
44047;DHT22;29713;-33.888;151.150;2023-02-28T15:29:11;24.30;99.90
44047;DHT22;29713;-33.888;151.150;2023-02-28T15:31:49;24.30;99.90
44047;DHT22;29713;-33.888;151.150;2023-02-28T15:34:43;24.40;99.90
44047;DHT22;29713;-33.888;151.150;2023-02-28T15:39:55;24.30;99.90
44047;DHT22;29713;-33.888;151.150;2023-02-28T15:42:28;24.40;99.90
44047;DHT22;29713;-33.888;151.150;2023-02-28T15:44:56;24.30;99.90
44047;DHT22;29713;-33.888;151.150;2023-02-28T15:47:28;24.30;99.90
44047;DHT22;29713;-33.888;151.150;2023-02-28T15:50:04;24.40;99.90
44047;DHT22;29713;-33.888;151.150;2023-02-28T15:52:42;24.40;99.90
44047;DHT22;29713;-33.888;151.150;2023-02-28T15:55:29;24.40;99.90
44047;DHT22;29713;-33.888;151.150;2023-02-28T15:58:01;24.30;99.90
44047;DHT22;29713;-33.888;151.150;2023-02-28T16:00:30;24.30;99.90
44047;DHT22;29713;-33.888;151.150;2023-02-28T16:03:00;24.30;99.90
44047;DHT22;29713;-33.888;151.150;2023-02-28T16:05:30;24.30;99.90
44047;DHT22;29713;-33.888;151.150;2023-02-28T16:08:14;24.30;99.90
44047;DHT22;29713;-33.888;151.150;2023-02-28T16:10:42;24.40;99.90
44047;DHT22;29713;-33.888;151.150;2023-02-28T16:13:12;24.30;99.90
44047;DHT22;29713;-33.888;151.150;2023-02-28T16:15:42;24.30;99.90
44047;DHT22;29713;-33.888;151.150;2023-02-28T16:18:12;24.30;99.90
44047;DHT22;29713;-33.888;151.150;2023-02-28T16:20:40;24.30;99.90
44047;DHT22;29713;-33.888;151.150;2023-02-28T16:23:07;24.30;99.90
44047;DHT22;29713;-33.888;151.150;2023-02-28T16:25:40;24.20;99.90
44047;DHT22;29713;-33.888;151.150;2023-02-28T16:28:30;24.20;99.90
44047;DHT22;29713;-33.888;151.150;2023-02-28T16:31:04;24.20;99.90
44047;DHT22;29713;-33.888;151.150;2023-02-28T16:33:35;24.10;99.90
44047;DHT22;29713;-33.888;151.150;2023-02-28T16:36:02;24.20;99.90
44047;DHT22;29713;-33.888;151.150;2023-02-28T16:38:30;24.10;99.90
44047;DHT22;29713;-33.888;151.150;2023-02-28T16:40:59;24.20;99.90
44047;DHT22;29713;-33.888;151.150;2023-02-28T16:43:27;24.20;99.90
44047;DHT22;29713;-33.888;151.150;2023-02-28T16:45:58;24.20;99.90
44047;DHT22;29713;-33.888;151.150;2023-02-28T16:48:27;24.20;99.90
44047;DHT22;29713;-33.888;151.150;2023-02-28T16:50:56;24.20;99.90
44047;DHT22;29713;-33.888;151.150;2023-02-28T16:53:23;24.20;99.90
44047;DHT22;29713;-33.888;151.150;2023-02-28T16:55:50;24.20;99.90
44047;DHT22;29713;-33.888;151.150;2023-02-28T16:58:18;24.30;99.90
44047;DHT22;29713;-33.888;151.150;2023-02-28T17:00:48;24.30;99.90
44047;DHT22;29713;-33.888;151.150;2023-02-28T17:03:26;24.20;99.90
44047;DHT22;29713;-33.888;151.150;2023-02-28T17:05:54;24.20;99.90
44047;DHT22;29713;-33.888;151.150;2023-02-28T17:08:21;24.20;99.90
44047;DHT22;29713;-33.888;151.150;2023-02-28T17:10:49;24.20;99.90
44047;DHT22;29713;-33.888;151.150;2023-02-28T17:13:16;24.20;99.90
44047;DHT22;29713;-33.888;151.150;2023-02-28T17:15:44;24.20;99.90
44047;DHT22;29713;-33.888;151.150;2023-02-28T17:18:17;24.30;99.90
44047;DHT22;29713;-33.888;151.150;2023-02-28T17:20:46;24.20;99.90
44047;DHT22;29713;-33.888;151.150;2023-02-28T17:23:13;24.30;99.90
44047;DHT22;29713;-33.888;151.150;2023-02-28T17:25:41;24.30;99.90
44047;DHT22;29713;-33.888;151.150;2023-02-28T17:28:20;24.20;99.90
44047;DHT22;29713;-33.888;151.150;2023-02-28T17:30:48;24.20;99.90
44047;DHT22;29713;-33.888;151.150;2023-02-28T17:33:16;24.20;99.90
44047;DHT22;29713;-33.888;151.150;2023-02-28T17:35:43;24.20;99.90
44047;DHT22;29713;-33.888;151.150;2023-02-28T17:38:17;24.10;99.90
44047;DHT22;29713;-33.888;151.150;2023-02-28T17:40:44;24.10;99.90
44047;DHT22;29713;-33.888;151.150;2023-02-28T17:43:12;24.10;99.90
44047;DHT22;29713;-33.888;151.150;2023-02-28T17:45:41;24.10;99.90
44047;DHT22;29713;-33.888;151.150;2023-02-28T17:48:11;24.10;99.90
44047;DHT22;29713;-33.888;151.150;2023-02-28T17:50:39;24.00;99.90
44047;DHT22;29713;-33.888;151.150;2023-02-28T17:53:06;24.10;99.90
44047;DHT22;29713;-33.888;151.150;2023-02-28T17:55:34;24.00;99.90
44047;DHT22;29713;-33.888;151.150;2023-02-28T17:58:03;24.00;99.90
44047;DHT22;29713;-33.888;151.150;2023-02-28T18:00:30;24.00;99.90
44047;DHT22;29713;-33.888;151.150;2023-02-28T18:03:01;24.00;99.90
44047;DHT22;29713;-33.888;151.150;2023-02-28T18:05:28;23.90;99.90
44047;DHT22;29713;-33.888;151.150;2023-02-28T18:07:56;23.90;99.90